ACA737 KLGA-CYYZ
Flight info
| Callsign | ACA737 |
|---|---|
| Flight time | 1h 4m |
| Altitude | 36000 |
| Route | GAYEL Q818 WOZEE LINNG3 |
| Aircraft | A321/M-SDE3FGHIRWY/LB1 |
Departure
| Time | 2026-05-07 02:30 |
|---|---|
| Airport | LaGuardia Airport (KLGA) |
Arrival
| Time | 2026-05-07 03:34 |
|---|---|
| Airport | Toronto Pearson International Airport (CYYZ) |
| Time | Latitude | Longitude | Altitude | Speed | Heading |
|---|---|---|---|---|---|
| 2026-05-07 01:59 | 40.77327 | -73.86713 | 21 ft | 0 kts | 277° |
| 2026-05-07 02:20 | 40.77324 | -73.86690 | 20 ft | 4 kts | 277° |
| 2026-05-07 02:20 | 40.77321 | -73.86663 | 20 ft | 4 kts | 313° |
| 2026-05-07 02:21 | 40.77301 | -73.86652 | 20 ft | 4 kts | 17° |
| 2026-05-07 02:21 | 40.77280 | -73.86670 | 20 ft | 4 kts | 43° |
| 2026-05-07 02:21 | 40.77273 | -73.86680 | 20 ft | 0 kts | 43° |
| 2026-05-07 02:25 | 40.77277 | -73.86675 | 20 ft | 3 kts | 43° |
| 2026-05-07 02:25 | 40.77305 | -73.86640 | 20 ft | 5 kts | 43° |
| 2026-05-07 02:25 | 40.77344 | -73.86596 | 21 ft | 10 kts | 40° |
| 2026-05-07 02:25 | 40.77396 | -73.86554 | 15 ft | 10 kts | 5° |
| 2026-05-07 02:26 | 40.77472 | -73.86570 | 12 ft | 10 kts | 350° |
| 2026-05-07 02:26 | 40.77524 | -73.86609 | 12 ft | 10 kts | 310° |
| 2026-05-07 02:26 | 40.77571 | -73.86711 | 13 ft | 16 kts | 302° |
| 2026-05-07 02:26 | 40.77643 | -73.86859 | 13 ft | 22 kts | 302° |
| 2026-05-07 02:27 | 40.77719 | -73.87018 | 15 ft | 18 kts | 302° |
| 2026-05-07 02:27 | 40.77779 | -73.87142 | 13 ft | 15 kts | 302° |
| 2026-05-07 02:27 | 40.77837 | -73.87263 | 13 ft | 17 kts | 301° |
| 2026-05-07 02:27 | 40.77905 | -73.87408 | 15 ft | 20 kts | 301° |
| 2026-05-07 02:28 | 40.77975 | -73.87559 | 16 ft | 18 kts | 302° |
| 2026-05-07 02:28 | 40.78036 | -73.87684 | 15 ft | 14 kts | 302° |
| 2026-05-07 02:28 | 40.78079 | -73.87775 | 18 ft | 9 kts | 302° |
| 2026-05-07 02:28 | 40.78106 | -73.87828 | 19 ft | 6 kts | 308° |
| 2026-05-07 02:29 | 40.78156 | -73.87865 | 18 ft | 12 kts | 351° |
| 2026-05-07 02:29 | 40.78221 | -73.87839 | 20 ft | 2 kts | 67° |
| 2026-05-07 02:29 | 40.78218 | -73.87833 | 19 ft | 1 kts | 118° |
| 2026-05-07 02:29 | 40.78215 | -73.87829 | 19 ft | 0 kts | 123° |
| 2026-05-07 02:30 | 40.78215 | -73.87827 | 19 ft | 2 kts | 123° |
| 2026-05-07 02:30 | 40.78129 | -73.87649 | 17 ft | 64 kts | 122° |
| 2026-05-07 02:30 | 40.77728 | -73.86805 | 16 ft | 149 kts | 122° |
| 2026-05-07 02:30 | 40.77117 | -73.85504 | 660 ft | 167 kts | 124° |
| 2026-05-07 02:31 | 40.76461 | -73.84279 | 1693 ft | 168 kts | 144° |
| 2026-05-07 02:31 | 40.75346 | -73.83640 | 2264 ft | 182 kts | 172° |
| 2026-05-07 02:31 | 40.74056 | -73.83342 | 2626 ft | 194 kts | 176° |
| 2026-05-07 02:31 | 40.72667 | -73.83021 | 2919 ft | 211 kts | 177° |
| 2026-05-07 02:32 | 40.71202 | -73.83037 | 3487 ft | 208 kts | 203° |
| 2026-05-07 02:32 | 40.70006 | -73.84061 | 4193 ft | 207 kts | 227° |
| 2026-05-07 02:32 | 40.69011 | -73.85489 | 4858 ft | 214 kts | 230° |
| 2026-05-07 02:32 | 40.68066 | -73.86983 | 5744 ft | 209 kts | 232° |
| 2026-05-07 02:33 | 40.67217 | -73.88533 | 6504 ft | 208 kts | 245° |
| 2026-05-07 02:33 | 40.66924 | -73.90415 | 7046 ft | 220 kts | 274° |
| 2026-05-07 02:33 | 40.67506 | -73.92364 | 7470 ft | 242 kts | 300° |
| 2026-05-07 02:33 | 40.68662 | -73.94125 | 7853 ft | 263 kts | 307° |
| 2026-05-07 02:34 | 40.69905 | -73.95936 | 8451 ft | 270 kts | 307° |
| 2026-05-07 02:34 | 40.71264 | -73.97683 | 9153 ft | 277 kts | 315° |
| 2026-05-07 02:34 | 40.72780 | -73.99292 | 9867 ft | 280 kts | 315° |
| 2026-05-07 02:34 | 40.74321 | -74.00925 | 10366 ft | 292 kts | 315° |
| 2026-05-07 02:35 | 40.76034 | -74.02509 | 10501 ft | 322 kts | 327° |
| 2026-05-07 02:35 | 40.78166 | -74.03696 | 10643 ft | 344 kts | 332° |
| 2026-05-07 02:35 | 40.80396 | -74.04857 | 11089 ft | 354 kts | 332° |
| 2026-05-07 02:35 | 40.82679 | -74.06009 | 11635 ft | 358 kts | 331° |
| 2026-05-07 02:36 | 40.84978 | -74.07146 | 12357 ft | 360 kts | 333° |
| 2026-05-07 02:36 | 40.87337 | -74.08321 | 12924 ft | 364 kts | 332° |
| 2026-05-07 02:36 | 40.89718 | -74.09519 | 13526 ft | 367 kts | 331° |
| 2026-05-07 02:36 | 40.92102 | -74.10727 | 14107 ft | 369 kts | 331° |
| 2026-05-07 02:37 | 40.94513 | -74.11959 | 14676 ft | 372 kts | 331° |
| 2026-05-07 02:37 | 40.96934 | -74.13198 | 15236 ft | 375 kts | 331° |
| 2026-05-07 02:37 | 40.99377 | -74.14449 | 15769 ft | 378 kts | 331° |
| 2026-05-07 02:37 | 41.01839 | -74.15710 | 16291 ft | 380 kts | 331° |
| 2026-05-07 02:38 | 41.04319 | -74.16981 | 16784 ft | 384 kts | 332° |
| 2026-05-07 02:38 | 41.06815 | -74.18259 | 17280 ft | 386 kts | 331° |
| 2026-05-07 02:38 | 41.09327 | -74.19549 | 17744 ft | 389 kts | 331° |
| 2026-05-07 02:38 | 41.11860 | -74.20852 | 18199 ft | 392 kts | 331° |
| 2026-05-07 02:39 | 41.14380 | -74.22147 | 18643 ft | 393 kts | 331° |
| 2026-05-07 02:39 | 41.16938 | -74.23458 | 19055 ft | 395 kts | 331° |
| 2026-05-07 02:39 | 41.19515 | -74.24780 | 19449 ft | 398 kts | 331° |
| 2026-05-07 02:39 | 41.22099 | -74.26109 | 19877 ft | 399 kts | 330° |
| 2026-05-07 02:40 | 41.24696 | -74.27447 | 20276 ft | 401 kts | 330° |
| 2026-05-07 02:40 | 41.27297 | -74.28790 | 20697 ft | 402 kts | 330° |
| 2026-05-07 02:40 | 41.29912 | -74.30141 | 21094 ft | 403 kts | 330° |
| 2026-05-07 02:40 | 41.32531 | -74.31496 | 21494 ft | 405 kts | 329° |
| 2026-05-07 02:41 | 41.35169 | -74.32862 | 21899 ft | 407 kts | 329° |
| 2026-05-07 02:41 | 41.37723 | -74.34409 | 22312 ft | 399 kts | 321° |
| 2026-05-07 02:41 | 41.39972 | -74.36485 | 22715 ft | 389 kts | 311° |
| 2026-05-07 02:41 | 41.41861 | -74.39011 | 23128 ft | 380 kts | 302° |
| 2026-05-07 02:42 | 41.43350 | -74.41873 | 23551 ft | 373 kts | 293° |
| 2026-05-07 02:42 | 41.44638 | -74.44880 | 23943 ft | 374 kts | 293° |
| 2026-05-07 02:42 | 41.45933 | -74.47891 | 24350 ft | 374 kts | 293° |
| 2026-05-07 02:42 | 41.47219 | -74.50867 | 24729 ft | 375 kts | 293° |
| 2026-05-07 02:43 | 41.48542 | -74.53922 | 25103 ft | 376 kts | 293° |
| 2026-05-07 02:43 | 41.49853 | -74.56944 | 25489 ft | 377 kts | 293° |
| 2026-05-07 02:43 | 41.51165 | -74.59969 | 25844 ft | 377 kts | 293° |
| 2026-05-07 02:43 | 41.52457 | -74.62962 | 26189 ft | 377 kts | 292° |
| 2026-05-07 02:44 | 41.53766 | -74.66005 | 26557 ft | 377 kts | 292° |
| 2026-05-07 02:44 | 41.55074 | -74.69041 | 26888 ft | 378 kts | 292° |
| 2026-05-07 02:44 | 41.56383 | -74.72082 | 27238 ft | 378 kts | 292° |
| 2026-05-07 02:44 | 41.57693 | -74.75134 | 27551 ft | 379 kts | 292° |
| 2026-05-07 02:45 | 41.59003 | -74.78191 | 27881 ft | 379 kts | 292° |
| 2026-05-07 02:45 | 41.60318 | -74.81249 | 28175 ft | 379 kts | 292° |
| 2026-05-07 02:45 | 41.61631 | -74.84310 | 28453 ft | 379 kts | 292° |
| 2026-05-07 02:45 | 41.62940 | -74.87373 | 28710 ft | 380 kts | 292° |
| 2026-05-07 02:46 | 41.64249 | -74.90443 | 28945 ft | 380 kts | 291° |
| 2026-05-07 02:46 | 41.65561 | -74.93515 | 29181 ft | 380 kts | 292° |
| 2026-05-07 02:46 | 41.66872 | -74.96586 | 29414 ft | 380 kts | 291° |
| 2026-05-07 02:46 | 41.68175 | -74.99643 | 29721 ft | 377 kts | 291° |
| 2026-05-07 02:47 | 41.69471 | -75.02693 | 30036 ft | 375 kts | 291° |
| 2026-05-07 02:47 | 41.70759 | -75.05721 | 30344 ft | 373 kts | 291° |
| 2026-05-07 02:47 | 41.72036 | -75.08731 | 30639 ft | 370 kts | 291° |
| 2026-05-07 02:47 | 41.73293 | -75.11686 | 30927 ft | 369 kts | 291° |
| 2026-05-07 02:48 | 41.74556 | -75.14659 | 31224 ft | 367 kts | 291° |
| 2026-05-07 02:48 | 41.75811 | -75.17621 | 31508 ft | 365 kts | 291° |
| 2026-05-07 02:48 | 41.77056 | -75.20574 | 31795 ft | 363 kts | 291° |
| 2026-05-07 02:48 | 41.78292 | -75.23509 | 32064 ft | 361 kts | 291° |
| 2026-05-07 02:49 | 41.79523 | -75.26433 | 32348 ft | 359 kts | 291° |
| 2026-05-07 02:49 | 41.80751 | -75.29348 | 32623 ft | 358 kts | 291° |
| 2026-05-07 02:49 | 41.81577 | -75.31311 | 32812 ft | 356 kts | 290° |
| 2026-05-07 02:49 | 41.82774 | -75.34159 | 33070 ft | 355 kts | 290° |
| 2026-05-07 02:50 | 41.83982 | -75.37035 | 33341 ft | 353 kts | 290° |
| 2026-05-07 02:50 | 41.85184 | -75.39894 | 33598 ft | 351 kts | 290° |
| 2026-05-07 02:50 | 41.86381 | -75.42746 | 33866 ft | 350 kts | 290° |
| 2026-05-07 02:50 | 41.87573 | -75.45589 | 34110 ft | 348 kts | 290° |
| 2026-05-07 02:51 | 41.88755 | -75.48411 | 34390 ft | 346 kts | 290° |
| 2026-05-07 02:51 | 41.89936 | -75.51233 | 34589 ft | 347 kts | 290° |
| 2026-05-07 02:51 | 41.91116 | -75.54059 | 34768 ft | 347 kts | 290° |
| 2026-05-07 02:51 | 41.92296 | -75.56887 | 34998 ft | 346 kts | 290° |
| 2026-05-07 02:52 | 41.93471 | -75.59708 | 35180 ft | 346 kts | 290° |
| 2026-05-07 02:52 | 41.94645 | -75.62529 | 35394 ft | 346 kts | 290° |
| 2026-05-07 02:52 | 41.95817 | -75.65346 | 35604 ft | 345 kts | 290° |
| 2026-05-07 02:52 | 41.96988 | -75.68163 | 35761 ft | 345 kts | 290° |
| 2026-05-07 02:53 | 41.98159 | -75.70985 | 35909 ft | 346 kts | 290° |
| 2026-05-07 02:53 | 41.99328 | -75.73801 | 35942 ft | 344 kts | 290° |
| 2026-05-07 02:53 | 42.01660 | -75.79413 | 35943 ft | 343 kts | 290° |
| 2026-05-07 02:54 | 42.03986 | -75.85029 | 35944 ft | 343 kts | 290° |
| 2026-05-07 02:54 | 42.06289 | -75.90601 | 35942 ft | 342 kts | 290° |
| 2026-05-07 02:55 | 42.08600 | -75.96211 | 35946 ft | 343 kts | 290° |
| 2026-05-07 02:55 | 42.10904 | -76.01834 | 35950 ft | 343 kts | 290° |
| 2026-05-07 02:56 | 42.13209 | -76.07460 | 35951 ft | 343 kts | 290° |
| 2026-05-07 02:56 | 42.15523 | -76.13118 | 35943 ft | 348 kts | 289° |
| 2026-05-07 02:57 | 42.17494 | -76.19080 | 35942 ft | 351 kts | 286° |
| 2026-05-07 02:57 | 42.19457 | -76.25179 | 35942 ft | 357 kts | 286° |
| 2026-05-07 02:58 | 42.21429 | -76.31338 | 35945 ft | 358 kts | 286° |
| 2026-05-07 02:58 | 42.23406 | -76.37503 | 35948 ft | 358 kts | 286° |
| 2026-05-07 02:59 | 42.25371 | -76.43653 | 35948 ft | 359 kts | 286° |
| 2026-05-07 02:59 | 42.27347 | -76.49865 | 35944 ft | 360 kts | 286° |
| 2026-05-07 03:00 | 42.29321 | -76.56087 | 35946 ft | 361 kts | 286° |
| 2026-05-07 03:00 | 42.31304 | -76.62328 | 35946 ft | 362 kts | 286° |
| 2026-05-07 03:01 | 42.33285 | -76.68587 | 35945 ft | 363 kts | 286° |
| 2026-05-07 03:01 | 42.35267 | -76.74869 | 35947 ft | 364 kts | 286° |
| 2026-05-07 03:02 | 42.37244 | -76.81145 | 35952 ft | 365 kts | 286° |
| 2026-05-07 03:02 | 42.39225 | -76.87483 | 35956 ft | 366 kts | 285° |
| 2026-05-07 03:03 | 42.41214 | -76.93844 | 35961 ft | 367 kts | 286° |
| 2026-05-07 03:03 | 42.43209 | -77.00221 | 35969 ft | 368 kts | 285° |
| 2026-05-07 03:04 | 42.45204 | -77.06619 | 35967 ft | 369 kts | 285° |
| 2026-05-07 03:04 | 42.47194 | -77.13027 | 35972 ft | 369 kts | 285° |
| 2026-05-07 03:05 | 42.49181 | -77.19439 | 35972 ft | 369 kts | 285° |
| 2026-05-07 03:05 | 42.51167 | -77.25854 | 35985 ft | 369 kts | 285° |
| 2026-05-07 03:06 | 42.53133 | -77.32241 | 35982 ft | 369 kts | 285° |
| 2026-05-07 03:06 | 42.55113 | -77.38674 | 35999 ft | 370 kts | 285° |
| 2026-05-07 03:07 | 42.57093 | -77.45096 | 35995 ft | 369 kts | 285° |
| 2026-05-07 03:07 | 42.59062 | -77.51532 | 35998 ft | 369 kts | 285° |
| 2026-05-07 03:08 | 42.61027 | -77.57977 | 36004 ft | 369 kts | 285° |
| 2026-05-07 03:08 | 42.62987 | -77.64416 | 36008 ft | 369 kts | 285° |
| 2026-05-07 03:09 | 42.64940 | -77.70858 | 36014 ft | 369 kts | 285° |
| 2026-05-07 03:09 | 42.66873 | -77.77313 | 36015 ft | 368 kts | 284° |
| 2026-05-07 03:10 | 42.68680 | -77.83767 | 36015 ft | 367 kts | 283° |
| 2026-05-07 03:10 | 42.70462 | -77.90271 | 36019 ft | 365 kts | 282° |
| 2026-05-07 03:11 | 42.72247 | -77.96721 | 36026 ft | 363 kts | 282° |
| 2026-05-07 03:11 | 42.74031 | -78.03129 | 36021 ft | 362 kts | 281° |
| 2026-05-07 03:12 | 42.75806 | -78.09523 | 36015 ft | 361 kts | 281° |
| 2026-05-07 03:12 | 42.77579 | -78.15928 | 35880 ft | 360 kts | 282° |
| 2026-05-07 03:13 | 42.78451 | -78.19072 | 35126 ft | 358 kts | 281° |
| 2026-05-07 03:13 | 42.79324 | -78.22243 | 34399 ft | 356 kts | 281° |
| 2026-05-07 03:13 | 42.80190 | -78.25387 | 33705 ft | 353 kts | 281° |
| 2026-05-07 03:13 | 42.81050 | -78.28511 | 33014 ft | 351 kts | 281° |
| 2026-05-07 03:14 | 42.81900 | -78.31614 | 32327 ft | 348 kts | 281° |
| 2026-05-07 03:14 | 42.82744 | -78.34701 | 31597 ft | 348 kts | 281° |
| 2026-05-07 03:14 | 42.84429 | -78.40883 | 30184 ft | 349 kts | 281° |
| 2026-05-07 03:15 | 42.85277 | -78.44002 | 29413 ft | 352 kts | 282° |
| 2026-05-07 03:15 | 42.86131 | -78.47149 | 28598 ft | 355 kts | 282° |
| 2026-05-07 03:15 | 42.86981 | -78.50277 | 27798 ft | 356 kts | 282° |
| 2026-05-07 03:15 | 42.87844 | -78.53444 | 27092 ft | 354 kts | 282° |
| 2026-05-07 03:16 | 42.88702 | -78.56572 | 26604 ft | 351 kts | 283° |
| 2026-05-07 03:16 | 42.89552 | -78.59682 | 26047 ft | 349 kts | 282° |
| 2026-05-07 03:16 | 42.90394 | -78.62786 | 25511 ft | 348 kts | 282° |
| 2026-05-07 03:16 | 42.91228 | -78.65889 | 24978 ft | 347 kts | 282° |
| 2026-05-07 03:17 | 42.92060 | -78.68969 | 24460 ft | 346 kts | 283° |
| 2026-05-07 03:17 | 42.92927 | -78.72031 | 23861 ft | 347 kts | 287° |
| 2026-05-07 03:17 | 42.94105 | -78.74930 | 23256 ft | 354 kts | 295° |
| 2026-05-07 03:17 | 42.95628 | -78.77606 | 22689 ft | 362 kts | 300° |
| 2026-05-07 03:18 | 42.97286 | -78.80369 | 22062 ft | 391 kts | 300° |
| 2026-05-07 03:18 | 42.99057 | -78.83342 | 21411 ft | 411 kts | 301° |
| 2026-05-07 03:18 | 43.00886 | -78.86382 | 20782 ft | 416 kts | 302° |
| 2026-05-07 03:18 | 43.02731 | -78.89423 | 20151 ft | 415 kts | 302° |
| 2026-05-07 03:19 | 43.04572 | -78.92451 | 19549 ft | 413 kts | 302° |
| 2026-05-07 03:19 | 43.06399 | -78.95463 | 18966 ft | 410 kts | 302° |
| 2026-05-07 03:19 | 43.08190 | -78.98434 | 18446 ft | 408 kts | 302° |
| 2026-05-07 03:19 | 43.09988 | -79.01432 | 17883 ft | 406 kts | 302° |
| 2026-05-07 03:20 | 43.11772 | -79.04416 | 17346 ft | 404 kts | 302° |
| 2026-05-07 03:20 | 43.13547 | -79.07385 | 16821 ft | 402 kts | 302° |
| 2026-05-07 03:20 | 43.15311 | -79.10335 | 16297 ft | 399 kts | 303° |
| 2026-05-07 03:20 | 43.17058 | -79.13259 | 15757 ft | 396 kts | 303° |
| 2026-05-07 03:21 | 43.18804 | -79.16174 | 15209 ft | 393 kts | 303° |
| 2026-05-07 03:21 | 43.20531 | -79.19058 | 14647 ft | 390 kts | 303° |
| 2026-05-07 03:21 | 43.22245 | -79.21925 | 14073 ft | 388 kts | 303° |
| 2026-05-07 03:21 | 43.23948 | -79.24780 | 13492 ft | 385 kts | 303° |
| 2026-05-07 03:22 | 43.25633 | -79.27616 | 13241 ft | 383 kts | 304° |
| 2026-05-07 03:22 | 43.27303 | -79.30432 | 13156 ft | 373 kts | 304° |
| 2026-05-07 03:22 | 43.28909 | -79.33090 | 13020 ft | 352 kts | 306° |
| 2026-05-07 03:22 | 43.30748 | -79.35232 | 12903 ft | 344 kts | 321° |
| 2026-05-07 03:23 | 43.32895 | -79.36584 | 12757 ft | 337 kts | 335° |
| 2026-05-07 03:23 | 43.35088 | -79.37517 | 12644 ft | 322 kts | 336° |
| 2026-05-07 03:23 | 43.37156 | -79.38391 | 12514 ft | 308 kts | 335° |
| 2026-05-07 03:23 | 43.39178 | -79.39246 | 12199 ft | 301 kts | 335° |
| 2026-05-07 03:24 | 43.41166 | -79.40096 | 11794 ft | 298 kts | 335° |
| 2026-05-07 03:24 | 43.43137 | -79.40945 | 11382 ft | 296 kts | 335° |
| 2026-05-07 03:24 | 43.45092 | -79.41794 | 10993 ft | 293 kts | 336° |
| 2026-05-07 03:24 | 43.47022 | -79.42630 | 10597 ft | 289 kts | 336° |
| 2026-05-07 03:25 | 43.48929 | -79.43453 | 10187 ft | 284 kts | 337° |
| 2026-05-07 03:25 | 43.50811 | -79.44264 | 9460 ft | 283 kts | 338° |
| 2026-05-07 03:25 | 43.52581 | -79.45334 | 8714 ft | 273 kts | 323° |
| 2026-05-07 03:25 | 43.54002 | -79.46986 | 8202 ft | 261 kts | 313° |
| 2026-05-07 03:26 | 43.55282 | -79.48668 | 8031 ft | 245 kts | 314° |
| 2026-05-07 03:26 | 43.56481 | -79.50222 | 7890 ft | 229 kts | 314° |
| 2026-05-07 03:26 | 43.57606 | -79.51683 | 7748 ft | 213 kts | 314° |
| 2026-05-07 03:26 | 43.58445 | -79.53244 | 7598 ft | 199 kts | 290° |
| 2026-05-07 03:27 | 43.58582 | -79.55149 | 7463 ft | 208 kts | 262° |
| 2026-05-07 03:27 | 43.57913 | -79.56956 | 7339 ft | 219 kts | 233° |
| 2026-05-07 03:27 | 43.56867 | -79.58486 | 7200 ft | 220 kts | 231° |
| 2026-05-07 03:27 | 43.55809 | -79.60014 | 7025 ft | 217 kts | 231° |
| 2026-05-07 03:28 | 43.54770 | -79.61511 | 6503 ft | 216 kts | 231° |
| 2026-05-07 03:28 | 43.53736 | -79.63006 | 5979 ft | 215 kts | 231° |
| 2026-05-07 03:28 | 43.52707 | -79.64488 | 5456 ft | 214 kts | 231° |
| 2026-05-07 03:28 | 43.51683 | -79.65970 | 4929 ft | 213 kts | 231° |
| 2026-05-07 03:29 | 43.50664 | -79.67441 | 4411 ft | 212 kts | 231° |
| 2026-05-07 03:29 | 43.49710 | -79.68952 | 3884 ft | 206 kts | 243° |
| 2026-05-07 03:29 | 43.49289 | -79.70789 | 3423 ft | 201 kts | 269° |
| 2026-05-07 03:29 | 43.49572 | -79.72647 | 3124 ft | 199 kts | 296° |
| 2026-05-07 03:30 | 43.50473 | -79.74098 | 3111 ft | 204 kts | 321° |
| 2026-05-07 03:30 | 43.51624 | -79.75257 | 3111 ft | 205 kts | 322° |
| 2026-05-07 03:30 | 43.52866 | -79.76227 | 3106 ft | 208 kts | 337° |
| 2026-05-07 03:30 | 43.54282 | -79.76558 | 3110 ft | 212 kts | 357° |
| 2026-05-07 03:31 | 43.55729 | -79.76154 | 3101 ft | 210 kts | 19° |
| 2026-05-07 03:31 | 43.56950 | -79.75057 | 3006 ft | 208 kts | 40° |
| 2026-05-07 03:31 | 43.57930 | -79.73645 | 2773 ft | 200 kts | 44° |
| 2026-05-07 03:31 | 43.58855 | -79.72303 | 2528 ft | 183 kts | 46° |
| 2026-05-07 03:32 | 43.59694 | -79.71092 | 2299 ft | 168 kts | 48° |
| 2026-05-07 03:32 | 43.60469 | -79.69956 | 2040 ft | 161 kts | 50° |
| 2026-05-07 03:32 | 43.61213 | -79.68873 | 1845 ft | 150 kts | 48° |
| 2026-05-07 03:32 | 43.61924 | -79.67856 | 1631 ft | 145 kts | 49° |
| 2026-05-07 03:33 | 43.62607 | -79.66840 | 1465 ft | 145 kts | 45° |
| 2026-05-07 03:33 | 43.63312 | -79.65844 | 1276 ft | 144 kts | 44° |
| 2026-05-07 03:33 | 43.63991 | -79.64838 | 1099 ft | 142 kts | 45° |
| 2026-05-07 03:33 | 43.64670 | -79.63871 | 923 ft | 139 kts | 45° |
| 2026-05-07 03:34 | 43.65338 | -79.62902 | 737 ft | 139 kts | 45° |
| 2026-05-07 03:34 | 43.66002 | -79.61938 | 589 ft | 137 kts | 46° |
| 2026-05-07 03:34 | 43.66594 | -79.61078 | 566 ft | 93 kts | 47° |
| 2026-05-07 03:34 | 43.66856 | -79.60697 | 566 ft | 36 kts | 45° |
| 2026-05-07 03:35 | 43.67032 | -79.60559 | 558 ft | 27 kts | 21° |
| 2026-05-07 03:35 | 43.67198 | -79.60516 | 560 ft | 20 kts | 329° |
| 2026-05-07 03:35 | 43.67299 | -79.60635 | 562 ft | 18 kts | 315° |
| 2026-05-07 03:35 | 43.67382 | -79.60769 | 557 ft | 19 kts | 279° |
| 2026-05-07 03:36 | 43.67318 | -79.60910 | 562 ft | 17 kts | 230° |
| 2026-05-07 03:36 | 43.67237 | -79.61031 | 557 ft | 17 kts | 227° |
| 2026-05-07 03:36 | 43.67201 | -79.61152 | 560 ft | 13 kts | 296° |
| 2026-05-07 03:36 | 43.67237 | -79.61209 | 563 ft | 12 kts | 314° |
| 2026-05-07 03:37 | 43.67317 | -79.61316 | 564 ft | 20 kts | 317° |
| 2026-05-07 03:37 | 43.67420 | -79.61448 | 565 ft | 20 kts | 317° |
| 2026-05-07 03:37 | 43.67523 | -79.61576 | 564 ft | 20 kts | 318° |
| 2026-05-07 03:37 | 43.67628 | -79.61669 | 566 ft | 17 kts | 13° |
| 2026-05-07 03:38 | 43.67719 | -79.61555 | 567 ft | 18 kts | 46° |
| 2026-05-07 03:38 | 43.67804 | -79.61433 | 562 ft | 14 kts | 46° |
| 2026-05-07 03:38 | 43.67871 | -79.61380 | 563 ft | 9 kts | 358° |
| 2026-05-07 03:38 | 43.67912 | -79.61358 | 564 ft | 5 kts | 62° |
| 2026-05-07 03:39 | 43.67908 | -79.61328 | 564 ft | 5 kts | 107° |
| 2026-05-07 03:39 | 43.67894 | -79.61289 | 564 ft | 3 kts | 113° |
| 2026-05-07 03:39 | 43.67889 | -79.61272 | 569 ft | 0 kts | 114° |